createdAt,value
2018-04-02T15:03:59.800Z,1.55
2018-04-02T15:06:26.481Z,1.40
2018-04-02T15:08:53.615Z,1.60
2018-04-02T15:11:20.758Z,1.45
2018-04-02T15:13:47.532Z,1.50
2018-04-02T15:16:14.134Z,1.50
2018-04-02T15:18:41.417Z,1.00
2018-04-02T15:21:08.745Z,1.30
2018-04-02T15:23:36.660Z,1.30
2018-04-02T15:26:03.516Z,1.83
2018-04-02T15:28:30.535Z,1.62
2018-04-02T15:30:58.019Z,1.80
2018-04-02T15:33:24.887Z,1.33
2018-04-02T15:35:51.857Z,1.42
2018-04-02T15:38:19.784Z,2.95
2018-04-02T15:40:46.780Z,2.10
2018-04-02T15:43:13.978Z,1.75
2018-04-02T15:45:41.556Z,1.50
2018-04-02T15:48:08.583Z,1.65
2018-04-02T15:50:36.261Z,1.37
2018-04-02T15:53:03.396Z,1.42
2018-04-02T15:55:31.010Z,1.42
2018-04-02T15:57:58.886Z,1.55
2018-04-02T16:00:27.197Z,1.50
2018-04-02T16:02:55.028Z,2.30
2018-04-02T16:05:22.319Z,2.30
2018-04-02T16:07:49.528Z,1.98
2018-04-02T16:10:16.475Z,1.85
2018-04-02T16:12:43.424Z,1.98
2018-04-02T16:15:11.022Z,1.85
2018-04-02T16:17:38.419Z,1.40
2018-04-02T16:20:05.997Z,1.87
2018-04-02T16:22:35.838Z,2.17
2018-04-02T16:25:04.357Z,2.60
2018-04-02T16:27:32.058Z,2.72
2018-04-02T16:29:58.813Z,2.33
2018-04-02T16:32:31.328Z,2.42
2018-04-02T16:35:00.042Z,2.00
2018-04-02T16:37:28.819Z,2.75
2018-04-02T16:39:56.257Z,2.00
2018-04-02T16:42:25.190Z,2.00
2018-04-02T16:44:52.585Z,1.98
2018-04-02T16:47:21.325Z,2.00
2018-04-02T16:49:51.387Z,7.20
2018-04-02T16:52:19.593Z,2.55
2018-04-02T16:54:48.320Z,2.83
2018-04-02T16:57:16.793Z,2.70
2018-04-02T16:59:45.292Z,2.95
2018-04-02T17:02:12.897Z,3.37
2018-04-02T17:04:41.282Z,3.28
2018-04-02T17:07:08.650Z,3.35
2018-04-02T17:09:35.513Z,3.67
2018-04-02T17:12:02.657Z,3.33
2018-04-02T17:14:30.695Z,3.40
2018-04-02T17:16:57.752Z,3.53
2018-04-02T17:21:59.307Z,2.45
2018-04-02T17:24:28.012Z,2.87
2018-04-02T17:26:56.719Z,3.12
2018-04-02T17:29:23.935Z,3.90
2018-04-02T17:31:51.042Z,5.07
2018-04-02T17:34:18.457Z,9.57
2018-04-02T17:36:48.765Z,11.60
2018-04-02T17:39:15.764Z,12.02
2018-04-02T17:41:42.684Z,11.65
2018-04-02T17:44:09.929Z,10.85
2018-04-02T17:46:36.915Z,11.10
2018-04-02T17:49:05.441Z,10.68
2018-04-02T17:51:32.871Z,11.98
2018-04-02T17:54:01.088Z,9.55
2018-04-02T17:56:28.087Z,9.82
2018-04-02T17:58:55.528Z,10.75
2018-04-02T18:01:23.448Z,18.52
2018-04-02T18:03:51.382Z,18.27
2018-04-02T18:06:18.346Z,15.40
2018-04-02T18:08:45.528Z,12.98
2018-04-02T18:11:13.275Z,12.37
2018-04-02T18:13:40.970Z,12.73
2018-04-02T18:16:08.052Z,12.37
2018-04-02T18:18:37.303Z,12.50
2018-04-02T18:21:07.019Z,13.65
2018-04-02T18:23:34.673Z,13.52
2018-04-02T18:26:02.535Z,14.10
2018-04-02T18:28:29.929Z,13.95
2018-04-02T18:30:58.461Z,14.85
2018-04-02T18:33:25.335Z,14.35
2018-04-02T18:35:52.364Z,19.27
2018-04-02T18:38:21.185Z,17.37
2018-04-02T18:40:50.157Z,17.83
2018-04-02T18:43:17.073Z,21.52
2018-04-02T18:45:46.324Z,19.10
2018-04-02T18:48:13.990Z,16.80
2018-04-02T18:50:41.692Z,13.95
2018-04-02T18:53:08.662Z,14.35
2018-04-02T18:55:36.440Z,12.98
2018-04-02T18:58:05.283Z,12.20
2018-04-02T19:00:32.920Z,13.18
2018-04-02T19:03:02.428Z,12.63
2018-04-02T19:05:30.030Z,12.32
2018-04-02T19:07:57.181Z,13.88
2018-04-02T19:10:26.522Z,15.00
2018-04-02T19:12:54.989Z,13.90
2018-04-02T19:15:22.173Z,14.32
2018-04-02T19:17:49.381Z,15.15
2018-04-02T19:20:18.279Z,16.55
2018-04-02T19:22:47.736Z,14.52
2018-04-02T19:25:14.667Z,11.35
2018-04-02T19:27:42.146Z,7.12
2018-04-02T19:30:09.374Z,6.93
2018-04-02T19:32:37.220Z,6.47
2018-04-02T19:35:04.278Z,12.77
2018-04-02T19:37:31.340Z,22.23
2018-04-02T19:39:59.470Z,19.00
2018-04-02T19:42:26.381Z,21.27
2018-04-02T19:44:53.237Z,23.90
2018-04-02T19:47:20.129Z,23.30
2018-04-02T19:49:47.920Z,21.27
2018-04-02T19:52:14.641Z,17.62
2018-04-02T19:54:42.006Z,16.92
2018-04-02T19:57:08.783Z,18.48
2018-04-02T19:59:35.385Z,18.70
2018-04-02T20:02:02.208Z,19.67
2018-04-02T20:04:28.949Z,21.27
2018-04-02T20:06:56.056Z,23.38
2018-04-02T20:09:22.984Z,19.67
2018-04-02T20:11:49.695Z,17.87
2018-04-02T20:14:17.188Z,19.42
2018-04-02T20:16:44.628Z,18.42
2018-04-02T20:19:13.021Z,17.55
2018-04-02T20:21:41.441Z,18.23
2018-04-02T20:24:08.746Z,17.42
2018-04-02T20:26:36.605Z,17.12
2018-04-02T20:29:03.538Z,15.43
2018-04-02T20:31:30.875Z,14.87
2018-04-02T20:33:58.119Z,17.10
2018-04-02T20:36:25.315Z,18.30
2018-04-02T20:38:52.386Z,17.08
2018-04-02T20:41:19.241Z,18.75
2018-04-02T20:43:45.642Z,19.30
2018-04-02T20:46:12.598Z,19.77
2018-04-02T20:48:39.485Z,18.50
2018-04-02T20:51:06.451Z,18.60
2018-04-02T20:53:33.327Z,18.50
2018-04-02T20:56:00.515Z,18.75
2018-04-02T20:58:27.772Z,18.77
2018-04-02T21:00:55.694Z,20.02
2018-04-02T21:03:23.926Z,21.50
2018-04-02T21:05:51.038Z,20.42
2018-04-02T21:08:22.429Z,20.33
2018-04-02T21:10:52.522Z,21.02
2018-04-02T21:13:21.627Z,22.00
2018-04-02T21:15:49.458Z,21.62
2018-04-02T21:18:17.670Z,22.92
2018-04-02T21:20:45.213Z,22.65
2018-04-02T21:23:12.875Z,22.73
2018-04-02T21:25:41.894Z,22.77
2018-04-02T21:28:09.315Z,22.95
2018-04-02T21:30:37.996Z,23.42
2018-04-02T21:33:05.240Z,21.90
2018-04-02T21:35:32.386Z,22.40
2018-04-02T21:37:59.887Z,21.80
2018-04-02T21:40:28.596Z,20.85
2018-04-02T21:42:55.775Z,18.65
2018-04-02T21:45:22.612Z,20.15
2018-04-02T21:47:49.281Z,18.27
2018-04-02T21:50:19.610Z,17.08
2018-04-02T21:52:46.879Z,16.73
2018-04-02T21:55:13.770Z,16.15
2018-04-02T21:57:40.663Z,18.20
2018-04-02T22:00:08.919Z,19.67
2018-04-02T22:02:36.491Z,18.58
2018-04-02T22:05:03.324Z,18.42
2018-04-02T22:07:32.041Z,18.58
2018-04-02T22:09:59.746Z,17.92
2018-04-02T22:12:27.039Z,17.48
2018-04-02T22:14:54.975Z,17.25
2018-04-02T22:17:22.674Z,18.05
2018-04-02T22:19:50.361Z,17.87
2018-04-02T22:22:17.870Z,17.98
2018-04-02T22:24:45.385Z,16.90
2018-04-02T22:27:12.756Z,18.33
2018-04-02T22:29:40.168Z,17.00
2018-04-02T22:32:08.429Z,16.65
2018-04-02T22:34:36.524Z,17.60
2018-04-02T22:37:04.184Z,17.55
2018-04-02T22:39:32.218Z,17.40
2018-04-02T22:41:59.742Z,16.70
2018-04-02T22:44:27.273Z,16.27
2018-04-02T22:46:55.269Z,16.05
2018-04-02T22:49:22.480Z,15.05
2018-04-02T22:51:49.611Z,12.80
2018-04-02T22:54:16.747Z,13.13
2018-04-02T22:56:44.477Z,12.68
2018-04-02T22:59:11.289Z,14.57
2018-04-02T23:01:38.642Z,13.32
2018-04-02T23:04:05.788Z,14.32
2018-04-02T23:06:33.058Z,14.13
2018-04-02T23:09:00.560Z,14.18
2018-04-02T23:11:28.254Z,14.20
2018-04-02T23:13:55.011Z,13.57
2018-04-02T23:16:22.331Z,12.95
2018-04-02T23:18:49.384Z,13.32
2018-04-02T23:21:16.089Z,13.62
2018-04-02T23:23:43.214Z,14.18
2018-04-02T23:26:10.356Z,13.57
2018-04-02T23:28:37.568Z,13.05
2018-04-02T23:31:04.743Z,12.35
2018-04-02T23:33:32.185Z,12.35
2018-04-02T23:35:59.854Z,11.60
2018-04-02T23:38:26.893Z,11.32
2018-04-02T23:40:54.239Z,11.35
2018-04-02T23:43:21.811Z,10.77
2018-04-02T23:45:48.858Z,11.15
2018-04-02T23:48:17.174Z,11.02
2018-04-02T23:50:44.583Z,10.45
2018-04-02T23:53:11.712Z,12.73
2018-04-02T23:55:39.387Z,12.07
2018-04-02T23:58:06.303Z,13.60
